Time;durP1;ratioP1;P1;durP2;ratioP2;P2;SDS_P1;SDS_P2;PMS_P1;PMS_P2;Temp;Humidity;BMP_temperature;BMP_pressure;BME280_temperature;BME280_humidity;BME280_pressure;Samples;Min_cycle;Max_cycle;Signal;HPM_P1;HPM_P2
2022/03/30 00:01:01;;;;;;;16.67;5.95;;;10.80;99.90;;;;;;4974270;28;20038;-78
2022/03/30 00:03:27;;;;;;;18.88;6.38;;;10.80;99.90;;;;;;4974430;28;20038;-78
2022/03/30 00:05:53;;;;;;;11.38;5.57;;;10.80;99.90;;;;;;4974092;28;20038;-78
2022/03/30 00:08:20;;;;;;;23.02;6.90;;;11.00;99.90;;;;;;4973211;28;20045;-78
2022/03/30 00:10:45;;;;;;;17.17;6.00;;;10.90;99.90;;;;;;4973999;28;20034;-78
2022/03/30 00:13:11;;;;;;;12.30;5.72;;;10.80;99.90;;;;;;4956711;28;20039;-79
2022/03/30 00:15:37;;;;;;;16.00;6.43;;;10.70;99.90;;;;;;4974462;28;20027;-77
2022/03/30 00:18:03;;;;;;;21.52;6.80;;;10.70;99.90;;;;;;4973730;28;20491;-78
2022/03/30 00:20:29;;;;;;;15.02;5.90;;;10.60;99.90;;;;;;4974306;28;20019;-78
2022/03/30 00:22:54;;;;;;;17.08;6.00;;;10.70;99.90;;;;;;4974149;28;20396;-78
2022/03/30 00:25:20;;;;;;;20.08;6.05;;;10.80;99.90;;;;;;4973669;28;20078;-78
2022/03/30 00:27:46;;;;;;;16.42;5.47;;;10.70;99.90;;;;;;4974024;28;20039;-78
2022/03/30 00:30:15;;;;;;;18.00;5.95;;;10.70;99.90;;;;;;4972733;28;20035;-79
2022/03/30 00:32:41;;;;;;;25.77;5.80;;;10.60;99.90;;;;;;4973477;28;20461;-78
2022/03/30 00:35:08;;;;;;;16.52;5.72;;;10.70;99.90;;;;;;4973589;28;20110;-78
2022/03/30 00:37:37;;;;;;;12.55;5.43;;;10.70;99.90;;;;;;4972371;28;20050;-78
2022/03/30 00:40:05;;;;;;;20.00;5.93;;;10.70;99.90;;;;;;4973782;28;20035;-78
2022/03/30 00:42:31;;;;;;;17.35;6.03;;;10.70;99.90;;;;;;4973570;28;20027;-78
2022/03/30 00:44:57;;;;;;;18.20;6.07;;;10.70;99.90;;;;;;4973435;28;20376;-78
2022/03/30 00:47:26;;;;;;;17.08;5.65;;;10.70;99.90;;;;;;4973069;28;20027;-78
2022/03/30 00:49:52;;;;;;;15.93;6.10;;;10.70;99.90;;;;;;4973430;28;20085;-78
2022/03/30 00:52:20;;;;;;;16.67;5.68;;;10.70;99.90;;;;;;4973291;28;20383;-78
2022/03/30 00:54:47;;;;;;;21.90;6.15;;;10.80;99.90;;;;;;4973555;28;20077;-78
2022/03/30 00:57:15;;;;;;;16.52;6.88;;;10.80;99.90;;;;;;4973371;28;20383;-78
2022/03/30 00:59:41;;;;;;;18.38;5.55;;;10.80;99.90;;;;;;4972845;28;20431;-78
2022/03/30 01:02:08;;;;;;;17.88;6.22;;;10.90;99.90;;;;;;4973291;28;20023;-78
2022/03/30 01:04:34;;;;;;;17.67;6.35;;;10.90;99.90;;;;;;4973213;28;20038;-78
2022/03/30 01:07:00;;;;;;;22.42;6.47;;;10.80;99.90;;;;;;4973321;28;20050;-78
2022/03/30 01:09:26;;;;;;;15.65;5.93;;;10.90;99.90;;;;;;4973302;28;20084;-78
2022/03/30 01:11:56;;;;;;;17.98;5.85;;;11.00;99.90;;;;;;4972713;28;20196;-78
2022/03/30 01:14:25;;;;;;;21.77;6.75;;;11.00;99.90;;;;;;4972600;28;20031;-78
2022/03/30 01:16:51;;;;;;;15.13;6.05;;;11.00;99.90;;;;;;4973015;28;20033;-78
2022/03/30 01:19:17;;;;;;;17.98;6.65;;;10.90;99.90;;;;;;4972634;28;20105;-78
2022/03/30 01:21:46;;;;;;;17.55;6.03;;;10.90;99.90;;;;;;4971904;28;20067;-78
2022/03/30 01:24:13;;;;;;;18.77;6.10;;;10.90;99.90;;;;;;4982775;28;20498;-78
2022/03/30 01:26:40;;;;;;;20.45;6.80;;;10.90;99.90;;;;;;4992336;28;20483;-78
2022/03/30 01:32:25;;;;;;;19.25;7.35;;;10.90;99.90;;;;;;4992328;28;20022;-78
2022/03/30 01:34:39;;;;;;;18.55;6.90;;;11.00;99.90;;;;;;4992553;28;20508;-78
2022/03/30 01:37:06;;;;;;;13.00;6.28;;;10.90;99.90;;;;;;4985456;28;20062;-78
2022/03/30 01:39:32;;;;;;;15.00;6.00;;;11.00;99.90;;;;;;4955399;28;20027;-78
2022/03/30 01:41:58;;;;;;;17.08;5.57;;;10.80;99.90;;;;;;4973104;28;20053;-78
2022/03/30 01:44:24;;;;;;;18.65;6.97;;;10.80;99.90;;;;;;4971378;28;20027;-78
2022/03/30 01:46:50;;;;;;;15.88;6.45;;;10.70;99.90;;;;;;4972490;28;20027;-78
2022/03/30 01:49:21;;;;;;;17.65;6.82;;;10.80;99.90;;;;;;4972917;28;20058;-78
2022/03/30 01:51:51;;;;;;;24.05;7.18;;;10.80;99.90;;;;;;4972483;28;20039;-78
2022/03/30 01:54:22;;;;;;;19.88;6.15;;;10.80;99.90;;;;;;4972814;28;20033;-78
2022/03/30 01:56:49;;;;;;;19.87;7.17;;;10.70;99.90;;;;;;4973064;28;20379;-78
2022/03/30 01:59:17;;;;;;;20.10;7.20;;;10.70;99.90;;;;;;4972560;28;20027;-78
2022/03/30 02:01:42;;;;;;;22.67;7.25;;;10.70;99.90;;;;;;4972443;28;20027;-78
2022/03/30 02:04:09;;;;;;;22.08;6.18;;;10.80;99.90;;;;;;4955696;28;20414;-78
2022/03/30 02:06:36;;;;;;;15.80;6.82;;;10.80;99.90;;;;;;4972271;28;20483;-78
2022/03/30 02:09:03;;;;;;;19.05;6.65;;;10.80;99.90;;;;;;4955168;28;20406;-78
2022/03/30 02:11:29;;;;;;;19.23;6.30;;;10.80;99.90;;;;;;4972412;28;20027;-78
2022/03/30 02:13:55;;;;;;;18.60;6.30;;;10.70;99.90;;;;;;4972245;28;20454;-78
2022/03/30 02:16:22;;;;;;;21.58;7.22;;;10.70;99.90;;;;;;4972039;28;20034;-78
2022/03/30 02:18:48;;;;;;;26.45;6.57;;;10.70;99.90;;;;;;4972443;28;20023;-78
2022/03/30 02:21:15;;;;;;;17.67;6.68;;;10.70;99.90;;;;;;4972714;28;20037;-78
2022/03/30 02:23:41;;;;;;;13.32;5.75;;;10.70;99.90;;;;;;4972255;28;20058;-78
2022/03/30 02:26:08;;;;;;;22.85;6.97;;;10.80;99.90;;;;;;4972754;28;20026;-78
2022/03/30 02:28:33;;;;;;;16.10;6.07;;;10.70;99.90;;;;;;4972119;28;20026;-78
2022/03/30 02:30:59;;;;;;;19.85;6.80;;;10.80;99.90;;;;;;4971769;28;20065;-78
2022/03/30 02:33:26;;;;;;;15.25;5.82;;;10.70;99.90;;;;;;4975334;28;20041;-78
2022/03/30 02:35:52;;;;;;;15.25;6.35;;;10.60;99.90;;;;;;4975853;28;20050;-78
2022/03/30 02:38:18;;;;;;;15.93;7.00;;;10.60;99.90;;;;;;4975999;28;20085;-78
2022/03/30 02:40:44;;;;;;;19.20;6.70;;;10.60;99.90;;;;;;4975637;28;20052;-78
2022/03/30 02:43:10;;;;;;;16.95;6.80;;;10.70;99.90;;;;;;4975427;28;20027;-78
2022/03/30 02:45:36;;;;;;;19.45;6.78;;;10.70;99.90;;;;;;4975043;28;20429;-78
2022/03/30 02:48:17;;;;;;;24.10;6.85;;;10.80;99.90;;;;;;4958706;28;20041;-78
2022/03/30 02:50:47;;;;;;;19.15;6.65;;;10.80;99.90;;;;;;4958319;28;20054;-78
2022/03/30 02:53:13;;;;;;;18.02;6.38;;;10.70;99.90;;;;;;4958561;28;20050;-78
2022/03/30 02:55:39;;;;;;;22.63;6.22;;;10.70;99.90;;;;;;4975157;28;20074;-78
2022/03/30 02:58:05;;;;;;;23.00;6.90;;;10.70;99.90;;;;;;4958245;28;20026;-78
2022/03/30 03:00:31;;;;;;;25.08;7.47;;;10.80;99.90;;;;;;4975460;28;20030;-79
2022/03/30 03:02:57;;;;;;;21.42;6.47;;;10.70;99.90;;;;;;4974969;28;20110;-78
2022/03/30 03:05:23;;;;;;;19.02;6.85;;;10.50;99.90;;;;;;4958316;28;20034;-78
2022/03/30 03:07:49;;;;;;;13.63;5.93;;;10.60;99.90;;;;;;4975467;28;20106;-78
2022/03/30 03:10:15;;;;;;;18.65;6.68;;;10.60;99.90;;;;;;4974742;28;20118;-78
2022/03/30 03:12:40;;;;;;;22.02;6.65;;;10.70;99.90;;;;;;4975163;28;20439;-78
2022/03/30 03:15:06;;;;;;;15.75;7.07;;;10.70;99.90;;;;;;4975283;28;20058;-78
2022/03/30 03:17:32;;;;;;;16.95;6.18;;;10.70;99.90;;;;;;4975535;28;20494;-78
2022/03/30 03:19:58;;;;;;;193.38;70.28;;;10.60;99.90;;;;;;4975031;28;20114;-78
2022/03/30 03:22:23;;;;;;;74.35;31.20;;;10.70;99.90;;;;;;4975190;28;20035;-78
2022/03/30 03:24:49;;;;;;;43.60;19.40;;;10.70;99.90;;;;;;4973810;28;20054;-78
2022/03/30 03:27:15;;;;;;;45.55;21.10;;;10.70;99.90;;;;;;4975288;28;20471;-78
2022/03/30 03:29:40;;;;;;;27.13;14.05;;;10.70;99.90;;;;;;4974405;28;20031;-78
2022/03/30 03:32:06;;;;;;;27.08;12.63;;;10.70;99.90;;;;;;4974790;28;20109;-78
2022/03/30 03:34:32;;;;;;;32.38;14.65;;;10.60;99.90;;;;;;4974935;28;20031;-78
2022/03/30 03:36:58;;;;;;;30.50;13.80;;;10.60;99.90;;;;;;4974509;28;20778;-78
2022/03/30 03:39:23;;;;;;;18.02;7.25;;;10.60;99.90;;;;;;4974585;28;20015;-78
2022/03/30 03:41:49;;;;;;;20.45;7.70;;;10.60;99.90;;;;;;4974774;28;20055;-78
2022/03/30 03:44:15;;;;;;;16.00;6.95;;;10.70;99.90;;;;;;4974101;28;20026;-78
2022/03/30 03:46:41;;;;;;;19.05;7.07;;;10.70;99.90;;;;;;4974875;28;20033;-78
2022/03/30 03:49:07;;;;;;;14.68;5.72;;;10.70;99.90;;;;;;4973420;28;20031;-78
2022/03/30 03:51:33;;;;;;;22.10;6.72;;;10.60;99.90;;;;;;4974600;28;20086;-78
2022/03/30 03:53:58;;;;;;;20.15;7.75;;;10.60;99.90;;;;;;4973469;28;20490;-78
2022/03/30 03:56:24;;;;;;;25.02;8.07;;;10.60;99.90;;;;;;4974674;28;20114;-78
2022/03/30 03:58:50;;;;;;;17.88;6.68;;;10.60;99.90;;;;;;4974427;28;20027;-78
2022/03/30 04:01:16;;;;;;;25.58;8.60;;;10.60;99.90;;;;;;4974593;28;20030;-78
2022/03/30 04:03:44;;;;;;;20.75;6.45;;;10.60;99.90;;;;;;4957209;28;20565;-78
2022/03/30 04:06:10;;;;;;;24.92;8.95;;;10.60;99.90;;;;;;4974307;28;20034;-78
2022/03/30 04:08:36;;;;;;;41.40;12.98;;;10.60;99.90;;;;;;4974209;28;20049;-78
2022/03/30 04:11:02;;;;;;;38.55;13.20;;;10.60;99.90;;;;;;4974108;28;20431;-78
2022/03/30 04:13:27;;;;;;;28.02;8.63;;;10.60;99.90;;;;;;4974230;28;20061;-78
2022/03/30 04:15:53;;;;;;;17.60;7.47;;;10.60;99.90;;;;;;4974036;28;20505;-78
2022/03/30 04:18:21;;;;;;;19.77;7.90;;;10.50;99.90;;;;;;4973811;28;20026;-81
2022/03/30 04:20:47;;;;;;;22.55;8.50;;;10.40;99.90;;;;;;4957187;28;20027;-82
2022/03/30 04:23:12;;;;;;;148.35;53.33;;;10.40;99.90;;;;;;4956710;28;20495;-83
2022/03/30 04:25:38;;;;;;;52.25;18.38;;;10.60;99.90;;;;;;4956859;28;20027;-84
2022/03/30 04:28:05;;;;;;;41.35;15.43;;;10.60;99.90;;;;;;4973937;28;20449;-79
2022/03/30 04:30:30;;;;;;;104.97;31.25;;;10.60;99.90;;;;;;4974027;28;20041;-79
2022/03/30 04:32:56;;;;;;;67.97;22.98;;;10.60;99.90;;;;;;4973484;28;20031;-78
2022/03/30 04:35:27;;;;;;;42.33;13.98;;;10.50;99.90;;;;;;4974041;28;20505;-78
2022/03/30 04:37:54;;;;;;;49.80;17.83;;;10.50;99.90;;;;;;4973656;28;20114;-79
2022/03/30 04:40:22;;;;;;;57.80;20.10;;;10.50;99.90;;;;;;4974517;28;20408;-78
2022/03/30 04:42:49;;;;;;;54.22;19.58;;;10.50;99.90;;;;;;4972690;28;20027;-79
2022/03/30 04:45:14;;;;;;;61.80;22.75;;;10.50;99.90;;;;;;4973537;28;20038;-78
2022/03/30 04:47:40;;;;;;;41.90;14.50;;;10.60;99.90;;;;;;4973695;28;20082;-79
2022/03/30 04:50:06;;;;;;;84.95;29.30;;;10.40;99.90;;;;;;4973701;28;20023;-78
2022/03/30 04:52:32;;;;;;;82.68;29.80;;;10.50;99.90;;;;;;4973168;28;20027;-78
2022/03/30 04:54:59;;;;;;;22.15;8.65;;;10.50;99.90;;;;;;4973245;28;20027;-78
2022/03/30 04:57:24;;;;;;;26.25;7.88;;;10.50;99.90;;;;;;4973088;28;20399;-79
2022/03/30 04:59:50;;;;;;;20.65;6.28;;;10.50;99.90;;;;;;4972979;28;20035;-79
2022/03/30 05:02:16;;;;;;;19.90;7.13;;;10.40;99.90;;;;;;4973628;28;20054;-79
2022/03/30 05:04:41;;;;;;;16.13;7.00;;;10.50;99.90;;;;;;4973277;28;20027;-78
2022/03/30 05:07:07;;;;;;;17.30;6.53;;;10.50;99.90;;;;;;4972864;28;20076;-78
2022/03/30 05:09:33;;;;;;;20.60;6.53;;;10.50;99.90;;;;;;4973055;28;20023;-79
2022/03/30 05:11:59;;;;;;;24.67;7.32;;;10.50;99.90;;;;;;4973606;28;20165;-78
2022/03/30 05:14:24;;;;;;;26.15;6.82;;;10.60;99.90;;;;;;4972405;28;20031;-79
2022/03/30 05:16:50;;;;;;;19.77;6.15;;;10.60;99.90;;;;;;4973261;28;20598;-79
2022/03/30 05:19:16;;;;;;;20.90;8.23;;;10.50;99.90;;;;;;4955647;28;20038;-79
2022/03/30 05:21:41;;;;;;;22.90;8.55;;;10.40;99.90;;;;;;4972550;28;20070;-79
2022/03/30 05:24:07;;;;;;;25.00;8.68;;;10.50;99.90;;;;;;4961510;28;20031;-78
2022/03/30 05:26:33;;;;;;;32.22;14.35;;;10.50;99.90;;;;;;4973355;28;20490;-78
2022/03/30 05:28:58;;;;;;;42.17;18.73;;;10.50;99.90;;;;;;4972650;28;20038;-79
2022/03/30 05:31:24;;;;;;;45.90;19.48;;;10.50;99.90;;;;;;4972107;28;20055;-79
2022/03/30 05:33:50;;;;;;;40.38;14.25;;;10.40;99.90;;;;;;4973077;28;20426;-79
2022/03/30 05:36:15;;;;;;;31.58;9.52;;;10.40;99.90;;;;;;4971383;28;20513;-79
2022/03/30 05:38:41;;;;;;;24.35;8.48;;;10.50;99.90;;;;;;4972392;28;20110;-79
2022/03/30 05:41:07;;;;;;;29.45;8.27;;;10.50;99.90;;;;;;4972132;28;20085;-82
2022/03/30 05:43:32;;;;;;;20.55;9.40;;;10.50;99.90;;;;;;4971410;28;20035;-82
2022/03/30 05:45:58;;;;;;;21.15;8.35;;;10.50;99.90;;;;;;4972732;28;20027;-84
2022/03/30 05:48:24;;;;;;;31.05;8.80;;;10.60;99.90;;;;;;4971565;28;20070;-82
2022/03/30 05:50:52;;;;;;;23.15;7.75;;;10.60;99.90;;;;;;4971995;28;20074;-81
2022/03/30 05:53:18;;;;;;;28.95;10.52;;;10.60;99.90;;;;;;4972295;28;20077;-81
2022/03/30 05:55:46;;;;;;;27.27;8.10;;;10.50;99.90;;;;;;4972383;28;20023;-81
2022/03/30 05:58:14;;;;;;;25.60;8.45;;;10.50;99.90;;;;;;4971431;28;20123;-80
2022/03/30 06:00:41;;;;;;;25.40;7.88;;;10.50;99.90;;;;;;4972411;28;20018;-79
2022/03/30 06:03:07;;;;;;;26.58;9.23;;;10.50;99.90;;;;;;4972097;28;20559;-80
2022/03/30 06:05:33;;;;;;;39.00;16.65;;;10.40;99.90;;;;;;4965257;28;20030;-80
2022/03/30 06:07:59;;;;;;;23.08;8.98;;;10.40;99.90;;;;;;4973745;28;20383;-80
2022/03/30 06:10:27;;;;;;;19.83;8.75;;;10.50;99.90;;;;;;4958333;28;20066;-81
2022/03/30 06:12:54;;;;;;;26.95;7.97;;;10.50;99.90;;;;;;4975102;28;20402;-80
2022/03/30 06:15:19;;;;;;;20.67;8.35;;;10.50;99.90;;;;;;4966019;28;20023;-82
2022/03/30 06:17:47;;;;;;;26.08;9.32;;;10.50;99.90;;;;;;4960782;28;20567;-82
2022/03/30 06:20:13;;;;;;;40.78;16.55;;;10.40;99.90;;;;;;4974359;28;20030;-81
2022/03/30 06:22:43;;;;;;;37.15;18.48;;;10.40;99.90;;;;;;4976334;28;20027;-81
2022/03/30 06:25:09;;;;;;;48.88;17.27;;;10.40;99.90;;;;;;4976482;28;20484;-81
2022/03/30 06:27:37;;;;;;;33.70;14.27;;;10.50;99.90;;;;;;4976412;28;20065;-81
2022/03/30 06:30:07;;;;;;;26.48;9.05;;;10.50;99.90;;;;;;4976555;28;20022;-81
2022/03/30 06:32:35;;;;;;;24.38;9.07;;;10.50;99.90;;;;;;4959177;28;20023;-81
2022/03/30 06:35:03;;;;;;;23.80;8.63;;;10.50;99.90;;;;;;4976375;28;20018;-81
2022/03/30 06:37:28;;;;;;;23.55;8.32;;;10.60;99.90;;;;;;4958146;28;20055;-81
2022/03/30 06:39:54;;;;;;;20.25;7.30;;;10.60;99.90;;;;;;4975887;28;20034;-82
2022/03/30 06:42:20;;;;;;;29.27;8.13;;;10.60;99.90;;;;;;4958425;28;20085;-82
2022/03/30 06:44:46;;;;;;;15.43;7.88;;;10.70;99.90;;;;;;4974751;28;20041;-81
2022/03/30 06:47:12;;;;;;;23.98;8.85;;;10.60;99.90;;;;;;4974027;28;20177;-84
2022/03/30 06:49:38;;;;;;;27.80;8.60;;;10.60;99.90;;;;;;4974956;28;20449;-81
2022/03/30 06:52:06;;;;;;;28.20;7.43;;;10.70;99.90;;;;;;4976148;28;20479;-81
2022/03/30 06:54:31;;;;;;;18.80;7.93;;;10.80;99.90;;;;;;4975447;28;20066;-82
2022/03/30 06:57:11;;;;;;;26.30;9.18;;;10.70;99.90;;;;;;4978230;28;20380;-83
2022/03/30 06:59:37;;;;;;;21.58;8.68;;;10.60;99.90;;;;;;4957936;28;20514;-82
2022/03/30 07:02:03;;;;;;;20.60;7.78;;;10.70;99.90;;;;;;4958021;28;20035;-79
2022/03/30 07:04:29;;;;;;;32.97;13.18;;;10.70;99.90;;;;;;4956876;28;20023;-81
2022/03/30 07:12:23;;;;;;;29.38;10.23;;;10.60;99.90;;;;;;4974979;28;20033;-82
2022/03/30 07:14:49;;;;;;;21.48;7.75;;;10.60;99.90;;;;;;4975638;28;20023;-85
2022/03/30 07:17:27;;;;;;;32.33;10.55;;;10.70;99.90;;;;;;4958645;28;20023;-81
2022/03/30 08:27:53;;;;;;;49.08;14.25;;;11.10;99.90;;;;;;5347417;23;20062;-81
2022/03/30 08:30:19;;;;;;;46.78;14.65;;;11.00;99.90;;;;;;4992696;28;20030;-81
2022/03/30 08:32:44;;;;;;;27.55;12.15;;;11.00;99.90;;;;;;4993132;28;20114;-82
2022/03/30 08:35:12;;;;;;;29.27;10.30;;;11.10;99.90;;;;;;4974644;28;20061;-83
2022/03/30 08:37:39;;;;;;;23.83;8.48;;;11.10;99.90;;;;;;4991287;28;20109;-83
2022/03/30 08:40:06;;;;;;;28.30;11.88;;;11.10;99.90;;;;;;4976163;28;20125;-84
2022/03/30 08:42:32;;;;;;;39.60;12.65;;;11.10;99.90;;;;;;4974872;28;20133;-84
2022/03/30 08:44:59;;;;;;;24.23;10.05;;;11.20;99.90;;;;;;4975214;28;20390;-83
2022/03/30 08:47:25;;;;;;;32.10;13.75;;;11.30;99.90;;;;;;4993636;28;20049;-84
2022/03/30 08:49:51;;;;;;;34.50;14.60;;;11.30;99.90;;;;;;4976077;28;20022;-83
2022/03/30 08:52:17;;;;;;;31.60;13.65;;;11.10;99.90;;;;;;4976355;28;20445;-84
2022/03/30 08:54:44;;;;;;;34.80;10.25;;;11.10;99.90;;;;;;4993823;28;20069;-83
2022/03/30 08:57:11;;;;;;;25.08;10.55;;;11.10;99.90;;;;;;4984269;28;20056;-83
2022/03/30 08:59:37;;;;;;;26.20;9.80;;;11.10;99.90;;;;;;4991413;28;20018;-82
2022/03/30 09:02:03;;;;;;;25.75;9.98;;;11.20;99.90;;;;;;4990726;28;20114;-83
2022/03/30 09:04:29;;;;;;;36.33;10.52;;;11.00;99.90;;;;;;4990911;28;20031;-83
2022/03/30 09:06:57;;;;;;;29.63;9.73;;;11.10;99.90;;;;;;4992309;28;20041;-84
2022/03/30 09:09:32;;;;;;;19.50;9.95;;;11.20;99.90;;;;;;4992259;28;20485;-84
2022/03/30 09:12:00;;;;;;;27.45;10.32;;;11.10;99.90;;;;;;4973749;28;20030;-84
2022/03/30 09:14:31;;;;;;;27.42;9.77;;;11.10;99.90;;;;;;4991232;28;20026;-83
2022/03/30 09:17:08;;;;;;;20.70;9.43;;;11.10;99.90;;;;;;4991221;28;20065;-84
2022/03/30 09:19:36;;;;;;;20.92;9.93;;;11.20;99.90;;;;;;4991076;28;20019;-83
2022/03/30 09:22:03;;;;;;;18.35;8.95;;;11.30;99.90;;;;;;4973028;28;20037;-82
2022/03/30 09:24:32;;;;;;;23.80;9.20;;;11.20;99.90;;;;;;4992161;28;20023;-83
2022/03/30 09:27:00;;;;;;;23.00;9.20;;;11.30;99.90;;;;;;4990205;28;20053;-83
2022/03/30 09:29:28;;;;;;;20.58;8.40;;;11.30;99.90;;;;;;4974546;28;20630;-83
2022/03/30 09:31:54;;;;;;;20.42;8.35;;;11.20;99.90;;;;;;4973426;28;20117;-83
2022/03/30 09:34:20;;;;;;;25.10;8.13;;;11.20;99.90;;;;;;4992344;28;20101;-83
2022/03/30 09:36:51;;;;;;;24.38;8.18;;;11.20;99.90;;;;;;4992631;28;20022;-83
2022/03/30 09:39:36;;;;;;;22.05;8.15;;;11.40;99.90;;;;;;4991546;28;20102;-85
2022/03/30 09:42:05;;;;;;;26.73;8.43;;;11.30;99.90;;;;;;4992807;28;20117;-85
2022/03/30 09:44:43;;;;;;;22.13;8.65;;;11.30;99.90;;;;;;4979157;28;20038;-85
2022/03/30 09:47:09;;;;;;;25.05;9.80;;;11.20;99.90;;;;;;4978832;28;20030;-84
2022/03/30 10:51:39;;;;;;;25.35;10.30;;;10.70;99.90;;;;;;5299762;23;20078;-84
2022/03/30 10:54:04;;;;;;;28.70;11.32;;;10.70;99.90;;;;;;4956616;28;20495;-81
2022/03/30 10:56:30;;;;;;;28.70;12.52;;;10.80;99.90;;;;;;4959717;28;20421;-81
2022/03/30 10:58:56;;;;;;;25.73;10.25;;;10.80;99.90;;;;;;4958415;28;20023;-84
2022/03/30 11:01:25;;;;;;;26.88;10.40;;;10.80;99.90;;;;;;4969885;28;20046;-85
2022/03/30 11:04:14;;;;;;;25.23;10.48;;;10.70;99.90;;;;;;4969165;28;20042;-86
2022/03/30 11:06:42;;;;;;;27.25;11.13;;;10.70;99.90;;;;;;4964921;28;20027;-84
2022/03/30 11:09:28;;;;;;;24.30;10.68;;;10.70;99.90;;;;;;4955675;28;20053;-84
2022/03/30 11:12:12;;;;;;;28.38;10.15;;;10.70;99.90;;;;;;4971328;28;20490;-84
2022/03/30 11:14:44;;;;;;;36.17;10.60;;;10.70;99.90;;;;;;4955063;28;20106;-86
2022/03/30 11:17:13;;;;;;;26.30;10.27;;;10.70;99.90;;;;;;4954558;28;20035;-86
2022/03/30 11:20:04;;;;;;;22.25;11.18;;;10.70;99.90;;;;;;4953030;28;20050;-86
2022/03/30 11:22:36;;;;;;;33.53;10.20;;;10.80;99.90;;;;;;4938915;29;20086;-87
2022/03/30 11:25:06;;;;;;;20.38;9.57;;;10.80;99.90;;;;;;4954989;28;20023;-84
2022/03/30 11:27:33;;;;;;;30.25;11.07;;;10.70;99.90;;;;;;4956166;28;20106;-85
2022/03/30 11:30:03;;;;;;;22.10;10.18;;;10.80;99.90;;;;;;4971513;28;20077;-85
2022/03/30 11:32:35;;;;;;;38.33;10.55;;;10.80;99.90;;;;;;4955699;28;20023;-88
2022/03/30 11:35:04;;;;;;;29.05;11.18;;;10.70;99.90;;;;;;4954974;29;20027;-84
2022/03/30 11:37:31;;;;;;;23.13;9.80;;;10.70;99.90;;;;;;4954661;29;20387;-89
2022/03/30 11:40:24;;;;;;;31.70;10.68;;;10.70;99.90;;;;;;4955486;28;20450;-83
2022/03/30 11:42:53;;;;;;;25.83;10.50;;;10.80;99.90;;;;;;4934004;29;20043;-87
2022/03/30 11:45:22;;;;;;;27.83;9.90;;;10.90;99.90;;;;;;4935957;29;20487;-87
2022/03/30 11:47:49;;;;;;;29.42;10.82;;;10.90;99.90;;;;;;4947039;28;20023;-87
2022/03/30 11:50:17;;;;;;;30.45;10.10;;;11.00;99.90;;;;;;4956330;28;20031;-90
2022/03/30 11:52:52;;;;;;;24.30;10.82;;;10.90;99.90;;;;;;4974400;28;20498;-87
2022/03/30 11:55:18;;;;;;;18.67;10.15;;;10.90;99.90;;;;;;4974680;28;20438;-88
2022/03/30 11:57:43;;;;;;;34.05;12.38;;;10.90;99.90;;;;;;4975149;28;20034;-85
2022/03/30 12:00:11;;;;;;;25.17;12.23;;;10.90;99.90;;;;;;4975307;28;20418;-87
2022/03/30 12:02:46;;;;;;;32.60;13.15;;;10.90;99.90;;;;;;4974466;28;20045;-86
2022/03/30 12:05:12;;;;;;;34.15;16.95;;;10.90;99.90;;;;;;4973255;28;20109;-86
2022/03/30 12:07:39;;;;;;;45.00;25.25;;;10.80;99.90;;;;;;4974577;28;20470;-85
2022/03/30 12:10:11;;;;;;;33.22;18.13;;;10.80;99.90;;;;;;4956677;28;20494;-86
2022/03/30 12:12:38;;;;;;;29.97;15.70;;;10.80;99.90;;;;;;4973022;28;20074;-85
2022/03/30 12:15:22;;;;;;;34.00;13.98;;;10.80;99.90;;;;;;4974073;28;20301;-85
2022/03/30 12:17:53;;;;;;;31.88;12.43;;;10.90;99.90;;;;;;4973502;28;20037;-85
2022/03/30 12:20:30;;;;;;;24.77;12.18;;;11.00;99.90;;;;;;4956861;28;20046;-86
2022/03/30 12:22:59;;;;;;;29.65;12.27;;;11.00;99.90;;;;;;4949018;28;20035;-86
2022/03/30 12:25:31;;;;;;;26.00;11.50;;;11.10;99.90;;;;;;4972885;28;20434;-86
2022/03/30 12:27:58;;;;;;;35.13;13.57;;;11.00;99.90;;;;;;4956155;28;20031;-85
2022/03/30 12:30:24;;;;;;;35.42;13.88;;;11.00;99.90;;;;;;4957111;28;20035;-85
2022/03/30 12:32:50;;;;;;;29.27;13.50;;;11.10;99.90;;;;;;4973478;28;20053;-86
2022/03/30 12:35:17;;;;;;;29.70;13.32;;;11.00;99.90;;;;;;4957018;28;20537;-85
2022/03/30 12:37:46;;;;;;;30.65;14.55;;;10.90;99.90;;;;;;4973837;28;20023;-85
2022/03/30 12:40:18;;;;;;;39.15;14.43;;;11.00;99.90;;;;;;4974748;28;20019;-85
2022/03/30 12:42:44;;;;;;;26.63;13.00;;;11.00;99.90;;;;;;4956329;28;20520;-86
2022/03/30 12:45:12;;;;;;;32.45;14.15;;;11.10;99.90;;;;;;4956832;28;20493;-86
2022/03/30 12:47:54;;;;;;;29.50;13.15;;;11.10;99.90;;;;;;4955937;28;20031;-86
2022/03/30 12:50:29;;;;;;;41.92;13.55;;;11.10;99.90;;;;;;4973341;28;20093;-86
2022/03/30 12:53:04;;;;;;;27.95;13.05;;;11.00;99.90;;;;;;4955471;28;20035;-86
2022/03/30 12:55:36;;;;;;;29.75;13.00;;;11.10;99.90;;;;;;4969548;28;20015;-85
2022/03/30 12:58:07;;;;;;;31.20;14.63;;;11.20;99.90;;;;;;4956725;28;20038;-85
2022/03/30 13:00:41;;;;;;;37.80;14.23;;;11.10;99.90;;;;;;4973474;28;20027;-86
2022/03/30 13:03:11;;;;;;;32.08;13.85;;;11.00;99.90;;;;;;4948772;28;20026;-85
2022/03/30 13:05:41;;;;;;;32.67;13.80;;;10.90;99.90;;;;;;4954488;28;20022;-85
2022/03/30 13:08:18;;;;;;;33.55;14.00;;;10.90;99.90;;;;;;4973756;28;20081;-85
2022/03/30 13:11:02;;;;;;;28.50;12.90;;;10.90;99.90;;;;;;4952181;28;20118;-86
2022/03/30 13:13:40;;;;;;;39.92;14.27;;;10.90;99.90;;;;;;4956826;28;20560;-85
2022/03/30 13:16:29;;;;;;;39.47;14.65;;;11.00;99.90;;;;;;4974159;28;20050;-86
2022/03/30 13:19:03;;;;;;;37.60;15.05;;;11.20;99.90;;;;;;4974043;28;20089;-86
2022/03/30 13:21:41;;;;;;;33.25;12.32;;;11.20;99.90;;;;;;4955723;28;20037;-86
2022/03/30 13:24:14;;;;;;;41.22;15.77;;;11.20;99.90;;;;;;4973906;28;20479;-87
2022/03/30 13:26:44;;;;;;;33.83;14.52;;;11.30;99.90;;;;;;4973698;28;20038;-87
2022/03/30 13:29:14;;;;;;;32.53;14.20;;;11.40;99.90;;;;;;4956268;28;20031;-86
2022/03/30 13:31:44;;;;;;;40.88;16.05;;;11.40;99.90;;;;;;4973800;28;20478;-86
2022/03/30 13:34:11;;;;;;;37.63;14.02;;;11.50;99.90;;;;;;4955890;28;20038;-86
2022/03/30 13:36:38;;;;;;;33.08;14.93;;;11.50;99.90;;;;;;4966524;28;20030;-85
2022/03/30 13:39:05;;;;;;;42.58;15.02;;;11.50;99.90;;;;;;4955871;28;20023;-85
2022/03/30 13:41:31;;;;;;;35.40;13.48;;;11.60;99.90;;;;;;4973679;28;20019;-85
2022/03/30 13:43:57;;;;;;;38.90;14.55;;;11.50;99.90;;;;;;4967686;28;20557;-86
2022/03/30 13:46:23;;;;;;;32.65;14.05;;;11.50;99.90;;;;;;4973713;28;20069;-86
2022/03/30 13:48:49;;;;;;;31.67;13.73;;;11.50;99.90;;;;;;4973007;28;20070;-85
2022/03/30 13:51:15;;;;;;;45.72;16.50;;;11.60;99.90;;;;;;4972866;28;20043;-86
2022/03/30 13:53:43;;;;;;;36.83;13.80;;;11.60;99.90;;;;;;4973210;28;20106;-86
2022/03/30 13:56:10;;;;;;;27.30;13.07;;;11.60;99.90;;;;;;4972877;28;20054;-86
2022/03/30 13:58:36;;;;;;;28.15;12.02;;;11.60;99.90;;;;;;4973225;28;20046;-85
2022/03/30 14:01:04;;;;;;;33.05;11.73;;;11.50;99.90;;;;;;4956373;28;20023;-84
2022/03/30 14:03:30;;;;;;;39.28;12.48;;;11.50;99.90;;;;;;4972635;28;20029;-85
2022/03/30 14:05:56;;;;;;;38.33;11.55;;;11.50;99.90;;;;;;4972698;28;20027;-87
2022/03/30 14:08:22;;;;;;;26.98;11.27;;;11.50;99.90;;;;;;4955689;28;20034;-85
2022/03/30 14:10:49;;;;;;;28.92;12.25;;;11.40;99.90;;;;;;4954064;28;20041;-85
2022/03/30 14:13:15;;;;;;;30.83;11.95;;;11.50;99.90;;;;;;4970784;28;20027;-85
2022/03/30 14:15:40;;;;;;;38.42;13.23;;;11.50;99.90;;;;;;4971751;28;20023;-85
2022/03/30 14:18:08;;;;;;;35.60;12.70;;;11.50;99.90;;;;;;4954595;28;20027;-84
2022/03/30 14:20:34;;;;;;;38.83;12.18;;;11.60;99.90;;;;;;4971671;28;20052;-85
2022/03/30 14:23:00;;;;;;;33.72;12.98;;;11.60;99.90;;;;;;4954859;28;20035;-83
2022/03/30 14:25:28;;;;;;;26.52;12.73;;;11.60;99.90;;;;;;4953353;28;20486;-84
2022/03/30 14:27:53;;;;;;;34.78;13.90;;;11.50;99.90;;;;;;4956301;28;20057;-85
2022/03/30 14:30:19;;;;;;;33.00;13.10;;;11.60;99.90;;;;;;4958047;28;20526;-83
2022/03/30 14:32:45;;;;;;;32.58;11.63;;;11.70;99.90;;;;;;4975952;28;20454;-84
2022/03/30 14:35:11;;;;;;;31.38;12.35;;;11.60;99.90;;;;;;4975663;28;20445;-84
2022/03/30 14:37:37;;;;;;;27.05;11.98;;;11.60;99.90;;;;;;4975798;28;20093;-84
2022/03/30 14:40:04;;;;;;;32.33;12.68;;;11.60;99.90;;;;;;4975143;28;20122;-84
2022/03/30 14:42:30;;;;;;;22.10;10.98;;;11.60;99.90;;;;;;4958704;28;20023;-84
2022/03/30 14:44:56;;;;;;;31.92;11.57;;;11.40;99.90;;;;;;4974966;28;20561;-84
2022/03/30 14:47:21;;;;;;;33.35;11.93;;;11.50;99.90;;;;;;4957027;28;20034;-85
2022/03/30 14:49:48;;;;;;;31.42;11.95;;;11.30;99.90;;;;;;4976037;28;20113;-85
2022/03/30 14:52:17;;;;;;;24.58;11.60;;;11.40;99.90;;;;;;4975028;28;20078;-85
2022/03/30 14:54:44;;;;;;;26.88;11.13;;;11.40;99.90;;;;;;4975579;28;20029;-85